Terminal Aerodrome Forecast
Issued by NWS

Home | Current Version | Previous Version | Text Only | Print | Product List | Glossary Off
Versions: 1 2 3 4 5 6 7 8 9 10 11 12 13 14 15 16 17 18 19 20 21

236
FTUS43 KIWX 212340
TAFSBN
TAF
KSBN 212340Z 2200/2224 22006KT P6SM SCT100 BKN250
     FM220600 21008KT 6SM -SHRA BKN040
      TEMPO 2206/2209 2SM TSRA BR OVC020CB
     FM221300 22005KT 6SM HZ SCT080 BKN150
     FM221600 23010KT P6SM VCTS BKN040CB=

USA.gov is the U.S. government's official web portal to all federal, state and local government web resources and services.